Time;durP1;ratioP1;P1;durP2;ratioP2;P2;SDS_P1;SDS_P2;PMS_P1;PMS_P2;Temp;Humidity;BMP_temperature;BMP_pressure;BME280_temperature;BME280_humidity;BME280_pressure;Samples;Min_cycle;Max_cycle;Signal;HPM_P1;HPM_P2
2022/05/09 00:01:15;;;;;;;10.32;3.17;;;;;;;12.16;63.18;100271.88;3121580;28;20049;-75
2022/05/09 00:02:48;;;;;;;9.98;3.10;;;;;;;12.16;63.47;100266.66;3120843;28;20054;-75
2022/05/09 00:04:20;;;;;;;6.53;3.08;;;;;;;12.14;63.28;100268.47;3121477;28;20549;-75
2022/05/09 00:05:52;;;;;;;7.22;2.83;;;;;;;12.13;63.34;100275.47;3121356;28;20085;-75
2022/05/09 00:07:24;;;;;;;7.10;2.88;;;;;;;12.12;63.53;100265.91;3121147;28;20049;-75
2022/05/09 00:08:56;;;;;;;9.90;2.92;;;;;;;12.06;63.54;100264.41;3121349;28;20415;-75
2022/05/09 00:10:28;;;;;;;9.48;3.25;;;;;;;11.83;63.54;100222.78;3117819;28;20054;-75
2022/05/09 00:11:59;;;;;;;11.43;3.10;;;;;;;12.07;63.57;100271.34;3121355;28;20096;-75
2022/05/09 00:13:31;;;;;;;7.32;3.75;;;;;;;12.07;63.61;100273.97;3121638;28;20057;-74
2022/05/09 00:15:05;;;;;;;8.02;3.58;;;;;;;12.07;64.02;100270.50;3119478;28;20107;-74
2022/05/09 00:16:36;;;;;;;9.48;2.75;;;;;;;12.04;64.04;100271.50;3119704;28;20107;-75
2022/05/09 00:18:10;;;;;;;8.88;3.17;;;;;;;11.99;63.79;100264.78;3121416;28;20103;-75
2022/05/09 00:19:42;;;;;;;;;;;;;;;12.00;63.86;100269.06;3121772;28;20123;-73
2022/05/09 00:21:13;;;;;;;6.72;2.78;;;;;;;11.94;64.20;100264.97;3120993;28;19932;-74
2022/05/09 00:22:48;;;;;;;9.95;3.88;;;;;;;11.93;64.31;100265.88;3122324;28;20546;-73
2022/05/09 00:24:21;;;;;;;6.53;3.15;;;;;;;11.84;64.28;100254.03;3115879;28;20049;-73
2022/05/09 00:25:53;;;;;;;10.07;3.13;;;;;;;11.93;64.53;100271.09;3121064;28;20104;-74
2022/05/09 00:27:25;;;;;;;8.25;3.55;;;;;;;11.91;64.32;100270.31;3121072;28;20438;-74
2022/05/09 00:28:57;;;;;;;5.47;3.58;;;;;;;11.92;64.52;100271.16;3121024;28;20045;-74
2022/05/09 00:30:29;;;;;;;7.53;3.57;;;;;;;11.90;64.78;100267.78;3121224;28;20135;-75
2022/05/09 00:32:01;;;;;;;7.88;3.55;;;;;;;11.88;64.71;100278.28;3121064;28;20670;-73
2022/05/09 00:33:35;;;;;;;7.60;3.22;;;;;;;11.85;64.89;100265.34;3121268;28;20049;-74
2022/05/09 00:35:09;;;;;;;7.45;3.53;;;;;;;11.75;64.70;100253.59;3120914;28;20597;-73
2022/05/09 00:36:41;;;;;;;9.35;3.70;;;;;;;11.80;64.93;100264.66;3115136;28;20060;-74
2022/05/09 00:38:12;;;;;;;8.73;3.28;;;;;;;11.54;65.06;100227.50;3121076;28;20134;-74
2022/05/09 00:39:46;;;;;;;6.15;2.67;;;;;;;11.79;65.09;100276.88;3121043;28;20049;-74
2022/05/09 00:41:31;;;;;;;7.47;4.07;;;;;;;11.53;65.47;100241.44;3121454;28;20056;-73
2022/05/09 00:43:03;;;;;;;8.55;3.45;;;;;;;11.64;65.57;100264.47;3120936;28;20054;-73
2022/05/09 00:44:35;;;;;;;8.55;3.45;;;;;;;11.61;65.89;100267.22;3121070;28;20053;-73
2022/05/09 00:46:08;;;;;;;13.00;3.95;;;;;;;11.64;65.87;100269.69;3120939;28;20057;-74
2022/05/09 00:47:40;;;;;;;6.95;2.75;;;;;;;11.67;66.05;100277.41;3120934;28;20060;-73
2022/05/09 00:49:20;;;;;;;10.88;3.40;;;;;;;11.66;66.20;100274.88;3121155;28;20057;-74
2022/05/09 00:50:52;;;;;;;9.65;3.90;;;;;;;11.65;66.10;100273.16;3120896;28;20380;-74
2022/05/09 00:52:30;;;;;;;9.07;3.38;;;;;;;11.65;66.22;100276.59;3121119;28;20140;-73
2022/05/09 00:54:03;;;;;;;7.00;3.33;;;;;;;11.64;65.92;100277.53;3120790;28;20107;-74
2022/05/09 00:55:41;;;;;;;8.43;3.10;;;;;;;11.65;65.87;100273.16;3120863;28;20045;-74
2022/05/09 00:57:18;;;;;;;9.77;3.92;;;;;;;11.46;65.89;100258.28;3120828;28;20049;-73
2022/05/09 00:58:55;;;;;;;10.95;4.15;;;;;;;11.60;66.36;100270.75;3114546;28;20053;-73
2022/05/09 01:00:27;;;;;;;9.00;4.20;;;;;;;11.49;66.32;100259.91;3114408;28;20068;-74
2022/05/09 01:01:59;;;;;;;8.85;3.58;;;;;;;11.45;66.20;100250.53;3121053;28;20045;-76
2022/05/09 01:03:36;;;;;;;7.93;3.45;;;;;;;11.49;66.40;100263.34;3120724;28;20107;-75
2022/05/09 01:05:12;;;;;;;9.00;3.72;;;;;;;11.52;66.75;100272.81;3120952;28;20179;-76
2022/05/09 01:06:45;;;;;;;8.85;3.35;;;;;;;11.48;66.57;100269.50;3120800;28;20057;-73
2022/05/09 01:08:16;;;;;;;6.55;3.10;;;;;;;11.39;66.74;100254.25;3120840;28;20050;-73
2022/05/09 01:09:48;;;;;;;7.53;3.53;;;;;;;11.42;66.91;100269.75;3120845;28;20057;-73
2022/05/09 01:11:24;;;;;;;12.15;3.60;;;;;;;11.38;67.22;100263.78;3120781;28;20383;-73
2022/05/09 01:12:56;;;;;;;7.00;3.20;;;;;;;11.42;67.04;100267.16;3120746;28;20112;-74
2022/05/09 01:14:30;;;;;;;12.27;3.80;;;;;;;11.25;67.14;100243.53;3120919;28;20079;-74
2022/05/09 01:16:04;;;;;;;9.18;3.83;;;;;;;11.41;66.94;100272.41;3120517;28;20760;-74
2022/05/09 01:17:39;;;;;;;6.30;3.22;;;;;;;11.36;67.36;100263.03;3120784;28;20046;-74
2022/05/09 01:19:26;;;;;;;11.30;3.40;;;;;;;11.09;67.46;100220.69;3120610;28;20503;-75
2022/05/09 01:20:59;;;;;;;8.55;2.90;;;;;;;11.18;67.45;100234.22;3120743;28;20041;-75
2022/05/09 01:22:35;;;;;;;10.07;3.38;;;;;;;11.34;67.74;100270.06;3120763;28;20049;-73
2022/05/09 01:24:15;;;;;;;5.72;3.53;;;;;;;11.33;67.70;100273.59;3120583;28;20109;-75
2022/05/09 01:25:47;;;;;;;13.45;3.88;;;;;;;11.34;67.71;100269.22;3120567;28;20107;-73
2022/05/09 01:27:19;;;;;;;12.43;3.22;;;;;;;11.08;67.86;100229.41;3120851;28;20041;-74
2022/05/09 01:28:51;;;;;;;6.30;3.58;;;;;;;11.28;67.82;100262.47;3120708;28;20050;-72
2022/05/09 01:30:29;;;;;;;8.80;3.63;;;;;;;11.30;68.00;100263.28;3120412;28;20049;-73
2022/05/09 01:32:03;;;;;;;13.35;4.65;;;;;;;11.31;67.82;100269.34;3116951;28;20103;-73
2022/05/09 01:33:38;;;;;;;9.13;3.45;;;;;;;11.19;68.12;100246.38;3120641;28;20057;-74
2022/05/09 01:35:28;;;;;;;9.30;4.35;;;;;;;11.35;67.94;100270.91;3120693;28;20108;-74
2022/05/09 01:37:04;;;;;;;9.48;3.92;;;;;;;11.35;67.89;100266.53;3120842;28;20072;-74
2022/05/09 01:38:42;;;;;;;10.85;3.75;;;;;;;11.36;67.75;100264.78;3120367;28;20053;-74
2022/05/09 01:40:15;;;;;;;15.50;3.70;;;;;;;11.35;67.91;100263.91;3116854;28;20103;-73
2022/05/09 01:41:49;;;;;;;10.32;4.00;;;;;;;11.31;67.88;100262.34;3120839;28;20100;-73
2022/05/09 01:43:38;;;;;;;10.95;4.15;;;;;;;11.33;68.29;100273.59;3123296;28;20479;-73
2022/05/09 01:45:11;;;;;;;10.90;4.40;;;;;;;10.98;68.25;100217.66;3123341;28;20049;-73
2022/05/09 01:50:24;;;;;;;13.10;5.15;;;;;;;11.21;67.90;100252.34;3122776;28;20054;-73
2022/05/09 01:51:58;;;;;;;14.15;4.93;;;;;;;11.32;67.83;100271.88;3122292;28;20107;-74
2022/05/09 01:53:31;;;;;;;12.02;4.45;;;;;;;11.20;68.15;100253.28;3122874;28;20446;-73
2022/05/09 01:55:05;;;;;;;9.07;4.82;;;;;;;11.33;68.13;100268.38;3122917;28;20502;-73
2022/05/09 01:56:39;;;;;;;13.02;4.32;;;;;;;11.28;67.94;100264.25;3123012;28;20068;-76
2022/05/09 01:58:11;;;;;;;12.68;4.43;;;;;;;11.32;67.88;100261.44;3123091;28;20054;-76
2022/05/09 01:59:44;;;;;;;12.30;4.35;;;;;;;11.28;68.03;100253.81;3122640;28;20127;-75
2022/05/09 02:01:16;;;;;;;12.52;4.45;;;;;;;11.31;68.12;100262.34;3119329;28;20480;-74
2022/05/09 02:02:48;;;;;;;11.25;4.95;;;;;;;11.30;68.20;100262.44;3122915;28;20085;-72
2022/05/09 02:04:20;;;;;;;10.57;4.55;;;;;;;11.29;68.00;100264.16;3122829;28;20053;-74
2022/05/09 02:05:52;;;;;;;10.20;4.30;;;;;;;11.29;68.37;100265.94;3122703;28;20123;-74
2022/05/09 02:07:26;;;;;;;9.82;3.88;;;;;;;11.26;68.12;100263.44;3122699;28;20104;-74
2022/05/09 02:08:58;;;;;;;13.32;4.57;;;;;;;11.24;68.28;100268.75;3122897;28;20049;-74
2022/05/09 02:10:31;;;;;;;10.75;4.57;;;;;;;11.18;68.31;100260.31;3122926;28;20357;-75
2022/05/09 02:12:03;;;;;;;;;;;;;;;11.19;68.00;100269.84;3123317;28;20058;-74
2022/05/09 02:13:35;;;;;;;10.90;3.90;;;;;;;11.14;68.15;100268.25;3122957;28;20358;-76
2022/05/09 02:15:08;;;;;;;12.15;4.50;;;;;;;11.12;68.43;100272.69;3122739;28;20466;-74
2022/05/09 02:16:40;;;;;;;;;;;;;;;11.09;68.30;100264.13;3123106;28;20132;-75
2022/05/09 02:18:12;;;;;;;6.60;4.32;;;;;;;11.06;68.57;100270.34;3122773;28;19921;-74
2022/05/09 02:19:44;;;;;;;13.45;4.40;;;;;;;11.03;68.65;100269.59;3122302;28;20068;-74
2022/05/09 02:21:16;;;;;;;7.55;4.47;;;;;;;10.81;68.60;100238.31;3120554;28;20104;-75
2022/05/09 02:22:48;;;;;;;11.88;4.90;;;;;;;10.97;68.88;100268.06;3122874;28;20053;-75
2022/05/09 02:24:18;;;;;;;15.05;4.75;;;;;;;10.98;68.79;100280.19;3122684;28;20049;-75
2022/05/09 02:25:52;;;;;;;10.48;4.88;;;;;;;10.98;68.73;100271.53;3122812;28;20079;-75
2022/05/09 02:27:24;;;;;;;14.68;5.00;;;;;;;10.95;69.05;100275.13;3122671;28;20473;-76
2022/05/09 02:29:40;;;;;;;11.32;4.10;;;;;;;10.98;68.68;100282.81;3122712;28;20053;-81
2022/05/09 02:31:11;;;;;;;10.45;4.50;;;;;;;10.92;68.97;100267.41;3122726;28;20045;-79
2022/05/09 02:32:43;;;;;;;10.43;4.68;;;;;;;10.98;68.86;100277.59;3122369;28;20542;-76
2022/05/09 02:34:15;;;;;;;9.00;4.40;;;;;;;10.91;69.11;100257.88;3122450;28;20579;-73
2022/05/09 02:35:48;;;;;;;8.90;4.03;;;;;;;10.82;69.14;100250.44;3122641;28;20049;-76
2022/05/09 02:40:00;;;;;;;15.13;4.88;;;;;;;10.68;68.98;100217.97;3121001;28;20038;-79
2022/05/09 02:44:20;;;;;;;12.18;4.85;;;;;;;10.91;69.11;100245.72;3121328;28;20037;-77
2022/05/09 02:45:52;;;;;;;12.45;4.47;;;;;;;10.90;68.83;100240.56;3122772;28;20481;-77
2022/05/09 02:52:28;;;;;;;12.52;4.93;;;;;;;11.20;68.82;100281.94;3117231;28;20112;-78
2022/05/09 02:59:36;;;;;;;7.72;4.30;;;;;;;11.22;68.44;100291.41;3117876;28;20041;-76
2022/05/09 03:01:07;;;;;;;18.13;4.63;;;;;;;11.00;68.88;100249.69;3122364;28;20049;-75
2022/05/09 03:02:39;;;;;;;18.63;5.78;;;;;;;11.20;68.95;100289.78;3122335;28;20104;-76
2022/05/09 03:06:00;;;;;;;16.60;5.38;;;;;;;11.14;69.10;100275.22;3122200;28;20037;-75
2022/05/09 03:07:31;;;;;;;16.77;4.88;;;;;;;10.59;68.94;100187.06;3122055;28;20064;-76
2022/05/09 03:09:04;;;;;;;12.32;5.00;;;;;;;10.95;68.66;100246.44;3122290;28;20596;-76
2022/05/09 03:10:37;;;;;;;15.48;5.38;;;;;;;11.27;68.51;100299.91;3122169;28;20463;-77
2022/05/09 03:12:11;;;;;;;11.82;4.63;;;;;;;11.29;68.51;100297.22;3122016;28;20133;-76
2022/05/09 03:13:43;;;;;;;13.73;5.13;;;;;;;11.08;68.53;100268.50;3122099;28;20577;-75
2022/05/09 03:15:16;;;;;;;16.45;5.38;;;;;;;11.29;68.71;100295.47;3122200;28;20112;-75
2022/05/09 03:16:48;;;;;;;;;;;;;;;11.28;68.28;100293.78;3116009;28;20499;-76
2022/05/09 03:18:26;;;;;;;15.60;5.07;;;;;;;11.28;68.50;100295.53;3121978;28;20252;-75
2022/05/09 03:19:58;;;;;;;13.60;5.03;;;;;;;11.24;68.25;100292.22;3121795;28;20061;-75
2022/05/09 03:21:30;;;;;;;15.07;5.95;;;;;;;11.21;68.31;100289.72;3122268;28;20081;-75
2022/05/09 03:23:02;;;;;;;11.35;4.82;;;;;;;11.23;68.29;100289.66;3121921;28;20057;-74
2022/05/09 03:24:34;;;;;;;14.52;5.00;;;;;;;11.32;68.27;100302.31;3121778;28;20534;-75
2022/05/09 03:26:06;;;;;;;18.55;5.07;;;;;;;11.21;68.40;100284.50;3121746;28;20612;-74
2022/05/09 03:27:38;;;;;;;11.80;4.75;;;;;;;11.32;68.20;100302.31;3121880;28;20580;-75
2022/05/09 03:29:11;;;;;;;13.32;5.15;;;;;;;11.04;68.23;100258.28;3121933;28;20534;-75
2022/05/09 03:30:45;;;;;;;12.87;5.40;;;;;;;11.35;68.32;100307.41;3121856;28;20337;-75
2022/05/09 03:32:17;;;;;;;13.75;4.90;;;;;;;10.91;68.08;100247.47;3121761;28;20312;-74
2022/05/09 03:33:49;;;;;;;17.42;6.22;;;;;;;11.25;68.16;100309.53;3122020;28;20103;-75
2022/05/09 03:35:20;;;;;;;15.77;4.65;;;;;;;11.25;67.89;100306.09;3121846;28;20592;-75
2022/05/09 03:36:52;;;;;;;15.45;5.03;;;;;;;11.21;67.81;100315.78;3121893;28;20052;-75
2022/05/09 03:38:24;;;;;;;16.23;5.50;;;;;;;11.16;67.73;100308.16;3121677;28;20049;-75
2022/05/09 03:39:56;;;;;;;14.05;5.13;;;;;;;11.13;67.74;100310.88;3122072;28;20049;-75
2022/05/09 03:41:28;;;;;;;15.98;5.00;;;;;;;11.11;67.95;100310.06;3115706;28;20058;-75
2022/05/09 03:43:00;;;;;;;15.80;5.43;;;;;;;11.09;67.99;100311.03;3121531;28;20143;-75
2022/05/09 03:44:32;;;;;;;13.02;5.60;;;;;;;11.05;67.62;100315.53;3121860;28;20128;-75
2022/05/09 03:46:05;;;;;;;16.00;5.15;;;;;;;11.03;67.87;100316.50;3121873;28;20049;-76
2022/05/09 03:47:38;;;;;;;;;;;;;;;11.00;67.82;100311.41;3122057;28;20049;-76
2022/05/09 03:49:12;;;;;;;14.75;4.80;;;;;;;11.00;67.85;100316.59;3121992;28;19947;-77
2022/05/09 03:50:44;;;;;;;21.20;5.20;;;;;;;10.81;67.85;100282.59;3121883;28;20064;-76
2022/05/09 03:52:16;;;;;;;14.90;5.30;;;;;;;10.73;67.92;100269.03;3121340;28;20442;-75
2022/05/09 03:53:48;;;;;;;12.60;4.45;;;;;;;11.03;67.79;100309.56;3119054;28;20057;-75
2022/05/09 03:55:20;;;;;;;18.95;5.70;;;;;;;11.07;67.51;100318.09;3121758;28;20107;-76
2022/05/09 03:56:52;;;;;;;18.10;5.72;;;;;;;11.07;67.51;100321.53;3121207;28;20058;-76
2022/05/09 03:58:24;;;;;;;13.88;5.57;;;;;;;10.81;67.45;100277.41;3121710;28;20053;-76
2022/05/09 03:59:56;;;;;;;25.33;5.18;;;;;;;10.90;67.10;100287.47;3121411;28;20057;-76
2022/05/09 04:01:29;;;;;;;12.32;5.40;;;;;;;11.03;67.09;100309.56;3121571;28;20098;-77
2022/05/09 04:03:01;;;;;;;13.10;5.25;;;;;;;10.99;67.18;100296.69;3121934;28;20483;-76
2022/05/09 04:04:34;;;;;;;11.85;5.13;;;;;;;11.02;66.86;100300.00;3121699;28;20100;-77
2022/05/09 04:06:06;;;;;;;20.67;5.35;;;;;;;11.23;66.89;100331.34;3121196;28;20045;-78
2022/05/09 04:07:37;;;;;;;16.88;5.32;;;;;;;11.25;66.65;100333.00;3121664;28;20050;-77
2022/05/09 04:09:09;;;;;;;11.77;4.90;;;;;;;11.22;66.69;100317.47;3121703;28;20097;-78
2022/05/09 04:11:04;;;;;;;22.23;5.45;;;;;;;11.16;66.48;100302.09;3121099;28;20049;-76
2022/05/09 04:12:35;;;;;;;17.25;5.50;;;;;;;11.21;66.41;100305.38;3121468;28;20072;-77
2022/05/09 04:14:07;;;;;;;17.55;5.68;;;;;;;11.18;66.43;100299.41;3121371;28;20045;-78
2022/05/09 04:17:31;;;;;;;13.93;5.25;;;;;;;11.06;66.17;100265.13;3081242;28;20054;-78
2022/05/09 04:19:03;;;;;;;12.80;6.45;;;;;;;11.28;65.76;100299.00;3121490;28;20057;-78
2022/05/09 04:20:36;;;;;;;21.02;5.95;;;;;;;11.30;65.66;100307.59;3121115;28;20120;-78
2022/05/09 04:22:08;;;;;;;22.60;5.70;;;;;;;11.51;65.83;100329.34;3120882;28;20132;-78
2022/05/09 04:23:55;;;;;;;14.35;5.07;;;;;;;11.30;65.32;100294.56;3121414;28;20057;-78
2022/05/09 04:25:31;;;;;;;16.63;5.57;;;;;;;11.56;65.61;100327.38;3121449;28;20049;-76
2022/05/09 04:27:03;;;;;;;15.15;5.25;;;;;;;11.31;65.44;100287.59;3121228;28;20049;-77
2022/05/09 04:28:35;;;;;;;20.48;5.82;;;;;;;11.55;65.35;100332.69;3120622;28;20391;-77
2022/05/09 04:30:09;;;;;;;23.38;5.20;;;;;;;11.42;65.56;100308.88;3121606;28;20049;-76
2022/05/09 04:31:41;;;;;;;19.83;6.30;;;;;;;11.57;65.62;100336.94;3121338;28;20099;-76
2022/05/09 04:33:15;;;;;;;16.15;5.65;;;;;;;11.58;65.63;100341.22;3114845;28;20439;-71
2022/05/09 04:34:47;;;;;;;17.13;5.32;;;;;;;11.38;65.97;100307.28;3123375;28;20041;-76
2022/05/09 04:36:20;;;;;;;16.38;5.97;;;;;;;11.56;65.64;100332.59;3121118;28;20080;-75
2022/05/09 04:37:53;;;;;;;19.77;6.35;;;;;;;11.30;65.71;100288.50;3120712;28;20061;-75
2022/05/09 04:39:25;;;;;;;17.88;5.80;;;;;;;11.50;65.60;100332.84;3120982;28;20053;-75
2022/05/09 04:40:58;;;;;;;17.88;6.13;;;;;;;11.20;65.73;100287.16;3121087;28;20407;-81
2022/05/09 04:42:30;;;;;;;55.85;25.98;;;;;;;11.47;66.25;100340.81;3120440;28;20507;-80
2022/05/09 04:44:03;;;;;;;47.40;21.40;;;;;;;11.44;66.47;100338.31;3120953;28;20136;-76
2022/05/09 04:45:41;;;;;;;45.38;20.00;;;;;;;11.28;66.66;100303.34;3120924;28;20059;-77
2022/05/09 04:47:13;;;;;;;16.85;7.32;;;;;;;11.43;66.37;100334.03;3114977;28;20061;-72
2022/05/09 04:48:46;;;;;;;15.68;6.85;;;;;;;11.44;66.68;100342.69;3121204;28;20046;-73
2022/05/09 04:50:20;;;;;;;21.17;6.60;;;;;;;11.43;66.73;100335.78;3120835;28;20119;-74
2022/05/09 04:51:52;;;;;;;18.60;5.90;;;;;;;11.31;66.57;100308.44;3121108;28;20052;-75
2022/05/09 04:53:24;;;;;;;10.65;6.30;;;;;;;11.47;66.81;100332.13;3121246;28;20057;-74
2022/05/09 04:54:57;;;;;;;13.95;6.55;;;;;;;11.51;66.75;100339.78;3121040;28;20045;-73
2022/05/09 04:56:28;;;;;;;16.92;6.07;;;;;;;11.42;66.71;100326.25;3120830;28;20096;-71
2022/05/09 04:58:00;;;;;;;14.60;6.32;;;;;;;11.55;66.57;100335.28;3120980;28;20049;-72
2022/05/09 04:59:32;;;;;;;17.05;6.15;;;;;;;11.66;66.60;100334.88;3121043;28;20069;-70
2022/05/09 05:01:04;;;;;;;17.80;5.50;;;;;;;11.71;66.43;100340.72;3120859;28;20053;-70
2022/05/09 05:02:36;;;;;;;17.58;6.45;;;;;;;11.74;66.17;100337.97;3120614;28;20150;-69
2022/05/09 05:04:10;;;;;;;16.90;6.45;;;;;;;11.78;66.09;100342.19;3120793;28;20497;-69
2022/05/09 05:05:43;;;;;;;13.15;6.55;;;;;;;11.82;65.96;100343.75;3119746;28;20053;-69
2022/05/09 05:07:14;;;;;;;10.98;6.45;;;;;;;11.86;65.90;100334.94;3120474;28;20053;-69
2022/05/09 05:08:46;;;;;;;15.07;5.90;;;;;;;11.92;65.59;100345.09;3120627;28;20476;-69
2022/05/09 05:10:20;;;;;;;14.88;6.57;;;;;;;11.98;65.76;100336.13;3120719;28;20053;-69
2022/05/09 05:11:52;;;;;;;22.23;6.43;;;;;;;11.99;65.38;100341.31;3120393;28;20546;-69
2022/05/09 05:13:25;;;;;;;14.75;5.72;;;;;;;11.98;65.51;100329.19;3120359;28;20053;-69
2022/05/09 05:14:57;;;;;;;16.02;6.60;;;;;;;12.09;65.33;100336.53;3120880;28;20050;-69
2022/05/09 05:18:14;;;;;;;17.52;7.10;;;;;;;12.09;65.13;100331.31;3120388;28;20053;-69
2022/05/09 05:19:49;;;;;;;19.95;6.78;;;;;;;12.19;65.21;100334.41;3120171;28;20103;-69
2022/05/09 05:21:21;;;;;;;14.68;6.85;;;;;;;12.17;64.80;100331.00;3120800;28;20087;-69
2022/05/09 05:22:54;;;;;;;12.23;6.20;;;;;;;12.17;64.92;100347.50;3120611;28;20550;-69
2022/05/09 05:24:27;;;;;;;24.08;7.57;;;;;;;12.17;64.97;100338.84;3120692;28;20076;-69
2022/05/09 05:26:00;;;;;;;20.33;7.22;;;;;;;12.24;64.98;100345.47;3120793;28;20379;-69
2022/05/09 05:27:32;;;;;;;16.98;6.50;;;;;;;12.29;65.10;100346.13;3120934;28;20384;-69
2022/05/09 05:29:15;;;;;;;22.02;6.70;;;;;;;12.36;64.98;100342.31;3114358;28;20775;-79
2022/05/09 05:30:49;;;;;;;18.13;6.20;;;;;;;12.40;64.79;100343.06;3120840;28;20111;-71
2022/05/09 05:32:24;;;;;;;16.70;6.32;;;;;;;12.44;64.37;100336.78;3120398;28;20111;-71
2022/05/09 05:33:56;;;;;;;16.80;6.40;;;;;;;12.43;64.23;100330.72;3120522;28;20107;-72
2022/05/09 05:35:29;;;;;;;21.13;6.00;;;;;;;12.58;63.70;100354.47;3120523;28;20046;-69
2022/05/09 05:37:01;;;;;;;15.13;6.00;;;;;;;12.61;63.76;100343.88;3120786;28;20704;-72
2022/05/09 05:38:33;;;;;;;13.95;5.45;;;;;;;12.67;63.48;100341.81;3120541;28;20119;-73
2022/05/09 05:40:06;;;;;;;13.48;5.47;;;;;;;12.70;63.07;100327.78;3120609;28;20068;-72
2022/05/09 05:41:38;;;;;;;26.05;15.07;;;;;;;12.84;63.13;100335.84;3119646;28;20132;-75
2022/05/09 05:43:12;;;;;;;37.28;21.15;;;;;;;12.94;63.10;100342.31;3120117;28;20107;-76
2022/05/09 05:44:44;;;;;;;13.40;5.32;;;;;;;13.02;62.30;100343.75;3123623;28;20056;-74
2022/05/09 05:46:16;;;;;;;15.02;6.10;;;;;;;12.98;62.30;100325.59;3119613;28;20051;-72
2022/05/09 05:47:48;;;;;;;10.32;4.80;;;;;;;13.07;62.06;100336.50;3120308;28;20061;-68
2022/05/09 05:49:23;;;;;;;13.10;5.28;;;;;;;13.08;61.79;100340.84;3120896;28;20486;-73
2022/05/09 05:50:56;;;;;;;12.50;4.95;;;;;;;13.14;61.95;100340.56;3120104;28;20045;-71
2022/05/09 05:52:28;;;;;;;;;;;;;;;13.16;61.84;100343.91;3120831;28;20085;-72
2022/05/09 05:54:00;;;;;;;14.10;5.90;;;;;;;13.20;62.10;100342.88;3120720;28;20287;-73
2022/05/09 05:55:31;;;;;;;9.40;4.82;;;;;;;13.19;62.08;100335.94;3120785;28;20442;-73
2022/05/09 05:57:05;;;;;;;11.10;5.75;;;;;;;13.22;61.77;100343.63;3120821;28;20057;-72
2022/05/09 05:58:36;;;;;;;;;;;;;;;13.29;61.89;100350.31;3121013;28;20053;-74
2022/05/09 06:00:11;;;;;;;12.15;5.43;;;;;;;13.24;61.94;100333.94;3120456;28;19925;-71
2022/05/09 06:01:43;;;;;;;13.30;5.68;;;;;;;13.38;61.66;100346.41;3120873;28;20594;-69
2022/05/09 06:03:15;;;;;;;13.48;5.53;;;;;;;13.46;61.51;100344.28;3116030;28;20050;-71
2022/05/09 06:04:48;;;;;;;14.43;5.90;;;;;;;13.55;61.26;100346.44;3110595;28;20066;-69
2022/05/09 06:06:22;;;;;;;9.80;5.43;;;;;;;13.55;61.02;100338.59;3111064;28;20053;-69
2022/05/09 06:07:55;;;;;;;;;;;;;;;13.67;61.03;100350.25;3111384;28;20053;-68
2022/05/09 06:09:27;;;;;;;12.63;5.47;;;;;;;13.70;60.73;100349.25;3111577;28;19932;-66
2022/05/09 06:10:59;;;;;;;11.37;5.37;;;;;;;13.73;60.88;100344.69;3104317;28;20064;-67
2022/05/09 06:12:31;;;;;;;15.40;5.20;;;;;;;13.68;60.67;100346.69;3110902;28;20092;-67
2022/05/09 06:14:05;;;;;;;18.38;5.82;;;;;;;13.76;60.24;100344.53;3111375;28;20060;-67
2022/05/09 06:15:37;;;;;;;12.38;5.68;;;;;;;13.84;60.17;100350.25;3110767;28;20501;-69
2022/05/09 06:17:11;;;;;;;16.95;5.53;;;;;;;13.91;59.98;100350.78;3111514;28;20064;-66
2022/05/09 06:18:43;;;;;;;;;;;;;;;13.90;59.65;100346.44;3111776;28;20053;-71
2022/05/09 06:20:14;;;;;;;11.18;5.50;;;;;;;13.96;59.63;100348.78;3110776;28;19931;-70
2022/05/09 06:21:48;;;;;;;11.95;5.88;;;;;;;13.99;59.71;100342.53;3111339;28;20077;-67
2022/05/09 06:23:20;;;;;;;14.70;6.32;;;;;;;14.00;59.46;100323.28;3111839;28;20073;-67
2022/05/09 06:24:58;;;;;;;17.65;6.38;;;;;;;14.25;59.34;100344.66;3111862;28;20058;-68
2022/05/09 06:26:30;;;;;;;16.02;6.47;;;;;;;14.23;58.80;100325.56;3111234;28;20054;-67
2022/05/09 06:28:02;;;;;;;12.10;6.60;;;;;;;14.38;58.57;100342.28;3110598;28;20045;-68
2022/05/09 06:29:35;;;;;;;18.42;5.88;;;;;;;14.44;58.46;100346.34;3112324;28;20055;-68
2022/05/09 06:31:07;;;;;;;18.38;6.45;;;;;;;14.50;58.25;100340.78;3112881;28;20495;-67
2022/05/09 06:32:39;;;;;;;12.45;6.60;;;;;;;14.57;58.07;100340.38;3112788;28;20627;-69
2022/05/09 06:34:13;;;;;;;17.20;6.70;;;;;;;14.64;58.07;100342.69;3112785;28;20079;-68
2022/05/09 06:35:46;;;;;;;14.93;6.30;;;;;;;14.69;57.77;100338.88;3113835;28;20350;-68
2022/05/09 06:37:19;;;;;;;17.67;6.10;;;;;;;14.71;57.44;100334.41;3114519;28;20119;-70
2022/05/09 06:38:51;;;;;;;20.45;6.78;;;;;;;14.77;57.03;100339.34;3113230;28;20058;-68
2022/05/09 06:40:24;;;;;;;11.25;5.38;;;;;;;14.85;56.87;100333.69;3112202;28;20064;-67
2022/05/09 06:41:56;;;;;;;11.53;5.70;;;;;;;14.92;56.48;100335.03;3112615;28;20049;-72
2022/05/09 06:43:28;;;;;;;19.58;5.75;;;;;;;15.04;56.56;100344.00;3113710;28;20517;-70
2022/05/09 06:45:00;;;;;;;9.70;4.75;;;;;;;15.10;56.17;100334.94;3112988;28;20095;-74
2022/05/09 06:46:33;;;;;;;11.57;5.00;;;;;;;15.23;55.75;100341.19;3112992;28;20132;-71
2022/05/09 06:48:10;;;;;;;11.07;5.43;;;;;;;15.31;55.27;100338.16;3113764;28;20853;-76
2022/05/09 06:49:43;;;;;;;11.63;5.95;;;;;;;15.36;54.72;100336.97;3112702;28;20057;-74
2022/05/09 06:51:15;;;;;;;10.35;5.20;;;;;;;15.40;54.49;100335.00;3113750;28;20064;-72
2022/05/09 06:52:49;;;;;;;14.90;6.00;;;;;;;15.37;54.67;100330.78;3115491;28;20064;-69
2022/05/09 06:54:22;;;;;;;8.75;5.03;;;;;;;15.39;54.78;100323.66;3113383;28;20061;-70
2022/05/09 06:55:54;;;;;;;11.27;5.22;;;;;;;15.57;54.45;100337.53;3112784;28;20103;-70
2022/05/09 06:57:27;;;;;;;12.68;5.93;;;;;;;15.47;54.32;100292.59;3113307;28;20097;-69
2022/05/09 06:59:19;;;;;;;11.27;5.53;;;;;;;15.71;53.72;100317.56;3112427;28;20053;-79
2022/05/09 07:00:52;;;;;;;10.55;5.47;;;;;;;15.85;53.71;100333.31;3112865;28;20053;-70
2022/05/09 07:02:24;;;;;;;10.75;4.82;;;;;;;15.88;53.41;100327.88;3113596;28;20145;-70
2022/05/09 07:03:56;;;;;;;15.27;5.50;;;;;;;15.66;53.37;100292.34;3112985;28;20107;-78
2022/05/09 07:05:28;;;;;;;16.33;5.95;;;;;;;15.98;53.37;100329.06;3112931;28;20435;-76
2022/05/09 07:07:01;;;;;;;12.13;5.30;;;;;;;15.98;53.23;100310.66;3107771;28;20623;-76
2022/05/09 07:08:34;;;;;;;10.70;5.57;;;;;;;16.18;53.17;100321.75;3113151;28;20045;-72
2022/05/09 07:10:07;;;;;;;13.02;5.80;;;;;;;16.20;52.55;100304.94;3112290;28;20490;-71
2022/05/09 07:11:40;;;;;;;12.13;5.90;;;;;;;16.46;52.70;100323.56;3112381;28;20057;-69
2022/05/09 07:13:12;;;;;;;15.27;5.78;;;;;;;16.55;52.52;100318.56;3113224;28;20067;-74
2022/05/09 07:14:45;;;;;;;13.15;4.68;;;;;;;16.60;52.51;100313.88;3112611;28;20064;-68
2022/05/09 07:16:17;;;;;;;11.98;5.15;;;;;;;16.78;51.94;100316.34;3112699;28;20054;-71
2022/05/09 07:17:50;;;;;;;12.77;5.57;;;;;;;16.92;51.64;100320.72;3112148;28;20594;-68
2022/05/09 07:19:22;;;;;;;11.15;4.78;;;;;;;17.03;51.00;100316.47;3113017;28;20107;-69
2022/05/09 07:20:54;;;;;;;13.23;5.30;;;;;;;17.14;50.71;100313.16;3112169;28;20053;-66
2022/05/09 07:22:27;;;;;;;11.90;5.50;;;;;;;17.27;50.23;100318.47;3112389;28;20063;-69
2022/05/09 07:24:00;;;;;;;13.35;4.95;;;;;;;17.14;50.12;100270.22;3112803;28;20053;-69
2022/05/09 07:25:33;;;;;;;15.20;5.28;;;;;;;17.48;50.14;100317.09;3113502;28;20692;-70
2022/05/09 07:27:06;;;;;;;11.70;4.55;;;;;;;17.56;49.67;100311.28;3113024;28;20057;-72
2022/05/09 07:28:38;;;;;;;17.05;5.70;;;;;;;17.57;49.38;100294.56;3112009;28;20084;-67
2022/05/09 07:30:12;;;;;;;60.30;36.87;;;;;;;17.68;49.07;100301.75;3112315;28;20124;-71
2022/05/09 07:31:44;;;;;;;24.85;12.32;;;;;;;17.79;49.28;100309.81;3111767;28;20057;-70
2022/05/09 07:33:19;;;;;;;14.30;4.25;;;;;;;17.91;48.90;100305.50;3113048;28;20141;-70
2022/05/09 07:34:51;;;;;;;9.68;4.07;;;;;;;18.03;48.68;100304.66;3112384;28;20062;-72
2022/05/09 07:36:23;;;;;;;6.22;3.40;;;;;;;18.17;48.36;100309.00;3112639;28;20053;-73
2022/05/09 07:37:55;;;;;;;7.45;2.78;;;;;;;18.31;47.79;100308.91;3112421;28;20053;-73